Time;durP1;ratioP1;P1;durP2;ratioP2;P2;SDS_P1;SDS_P2;PMS_P1;PMS_P2;Temp;Humidity;BMP_temperature;BMP_pressure;BME280_temperature;BME280_humidity;BME280_pressure;Samples;Min_cycle;Max_cycle;Signal;HPM_P1;HPM_P2
2022/07/11 00:01:45;;;;;;;7.40;2.83;;;;;;;;;;5074833;28;20082;-72
2022/07/11 00:04:10;;;;;;;4.38;2.78;;;;;;;;;;5075658;28;20028;-72
2022/07/11 00:06:35;;;;;;;6.88;2.95;;;;;;;;;;5074919;28;20016;-72
2022/07/11 00:09:01;;;;;;;5.35;2.53;;;;;;;;;;5090730;28;20025;-72
2022/07/11 00:11:26;;;;;;;5.78;3.30;;;;;;;;;;5078475;28;20024;-72
2022/07/11 00:13:51;;;;;;;4.85;2.85;;;;;;;;;;5088080;28;20021;-73
2022/07/11 00:16:16;;;;;;;8.00;3.67;;;;;;;;;;5073584;28;20095;-72
2022/07/11 00:18:42;;;;;;;7.70;2.97;;;;;;;;;;5075262;28;20384;-72
2022/07/11 00:21:07;;;;;;;8.45;3.08;;;;;;;;;;5077725;28;20103;-72
2022/07/11 00:23:32;;;;;;;6.20;3.00;;;;;;;;;;5075033;28;20028;-72
2022/07/11 00:25:57;;;;;;;5.30;2.72;;;;;;;;;;5075563;28;20086;-72
2022/07/11 00:28:23;;;;;;;9.50;2.92;;;;;;;;;;5076848;28;20028;-72
2022/07/11 00:30:48;;;;;;;8.18;3.40;;;;;;;;;;5073291;28;20468;-73
2022/07/11 00:33:14;;;;;;;9.88;3.20;;;;;;;;;;5081347;28;20521;-72
2022/07/11 00:35:39;;;;;;;5.82;3.25;;;;;;;;;;5081545;28;20044;-72
2022/07/11 00:38:04;;;;;;;7.32;3.10;;;;;;;;;;5083140;28;20043;-73
2022/07/11 00:40:29;;;;;;;8.85;2.97;;;;;;;;;;5073791;28;20032;-73
2022/07/11 00:42:55;;;;;;;5.60;2.95;;;;;;;;;;5057361;28;20020;-72
2022/07/11 00:45:20;;;;;;;7.25;3.13;;;;;;;;;;5074482;28;20037;-72
2022/07/11 00:47:46;;;;;;;6.20;3.05;;;;;;;;;;5078903;28;20031;-72
2022/07/11 00:50:11;;;;;;;9.63;3.10;;;;;;;;;;5081377;28;20074;-73
2022/07/11 00:52:36;;;;;;;5.90;3.08;;;;;;;;;;5079925;28;20114;-72
2022/07/11 00:55:02;;;;;;;8.07;3.00;;;;;;;;;;5084973;28;20028;-72
2022/07/11 00:57:27;;;;;;;7.07;3.10;;;;;;;;;;5078915;28;20641;-72
2022/07/11 00:59:53;;;;;;;5.97;3.35;;;;;;;;;;5079700;28;20369;-72
2022/07/11 01:02:18;;;;;;;8.15;3.33;;;;;;;;;;5073038;28;20021;-72
2022/07/11 01:04:43;;;;;;;9.00;3.90;;;;;;;;;;5077838;28;20456;-73
2022/07/11 01:07:09;;;;;;;10.20;3.58;;;;;;;;;;5080321;28;20445;-73
2022/07/11 01:09:34;;;;;;;6.53;3.30;;;;;;;;;;5079643;28;20025;-73
2022/07/11 01:12:00;;;;;;;5.90;3.58;;;;;;;;;;5073996;28;20028;-72
2022/07/11 01:14:25;;;;;;;8.00;3.70;;;;;;;;;;5087506;28;20028;-72
2022/07/11 01:16:51;;;;;;;8.00;3.78;;;;;;;;;;5070206;28;20060;-73
2022/07/11 01:19:16;;;;;;;10.05;3.78;;;;;;;;;;5084543;28;20016;-73
2022/07/11 01:21:42;;;;;;;8.00;3.63;;;;;;;;;;5074237;28;20074;-72
2022/07/11 01:24:08;;;;;;;7.43;3.72;;;;;;;;;;5078693;28;20023;-73
2022/07/11 01:26:34;;;;;;;9.02;3.72;;;;;;;;;;5077832;28;20198;-73
2022/07/11 01:29:06;;;;;;;6.43;3.53;;;;;;;;;;5082043;28;20025;-73
2022/07/11 01:31:31;;;;;;;9.80;3.90;;;;;;;;;;5072253;28;20024;-72
2022/07/11 01:33:57;;;;;;;10.25;4.07;;;;;;;;;;5079763;28;20376;-73
2022/07/11 01:36:22;;;;;;;6.70;3.25;;;;;;;;;;5073531;28;20127;-72
2022/07/11 01:38:47;;;;;;;8.50;3.75;;;;;;;;;;5075448;28;20048;-73
2022/07/11 01:41:13;;;;;;;8.25;3.72;;;;;;;;;;5072215;28;20349;-73
2022/07/11 01:43:38;;;;;;;8.40;3.80;;;;;;;;;;5077779;28;20032;-72
2022/07/11 01:46:04;;;;;;;7.53;3.58;;;;;;;;;;5075598;28;20524;-72
2022/07/11 01:48:29;;;;;;;8.52;3.72;;;;;;;;;;5077453;28;20024;-72
2022/07/11 01:50:54;;;;;;;8.52;3.67;;;;;;;;;;5072049;28;20039;-73
2022/07/11 01:53:19;;;;;;;9.13;3.58;;;;;;;;;;5082705;28;20027;-72
2022/07/11 01:55:45;;;;;;;8.88;3.78;;;;;;;;;;5077677;28;20086;-72
2022/07/11 01:58:10;;;;;;;9.27;3.75;;;;;;;;;;5078941;28;20099;-72
2022/07/11 02:00:35;;;;;;;13.32;3.90;;;;;;;;;;5058328;28;20024;-73
2022/07/11 02:03:01;;;;;;;6.57;4.00;;;;;;;;;;5081987;28;20455;-73
2022/07/11 02:05:26;;;;;;;7.85;3.38;;;;;;;;;;5073944;28;20464;-72
2022/07/11 02:10:35;;;;;;;6.45;3.50;;;;;;;;;;5072990;28;20059;-72
2022/07/11 02:13:01;;;;;;;10.32;4.20;;;;;;;;;;5072303;28;20052;-73
2022/07/11 02:15:26;;;;;;;7.00;3.60;;;;;;;;;;5078738;28;20040;-72
2022/07/11 02:17:52;;;;;;;5.80;3.42;;;;;;;;;;5066750;28;20020;-72
2022/07/11 02:20:20;;;;;;;9.95;3.72;;;;;;;;;;5081300;28;20032;-72
2022/07/11 02:22:46;;;;;;;7.20;3.72;;;;;;;;;;5076759;28;20518;-72
2022/07/11 02:25:12;;;;;;;9.05;4.38;;;;;;;;;;5081956;28;20024;-72
2022/07/11 02:27:37;;;;;;;8.27;4.07;;;;;;;;;;5072832;28;20039;-72
2022/07/11 02:30:02;;;;;;;8.88;4.20;;;;;;;;;;5074417;28;20028;-72
2022/07/11 02:32:27;;;;;;;7.28;3.78;;;;;;;;;;5082572;28;20020;-72
2022/07/11 02:34:53;;;;;;;9.93;4.18;;;;;;;;;;5083807;28;20352;-72
2022/07/11 02:37:19;;;;;;;8.57;3.90;;;;;;;;;;5072409;28;20096;-72
2022/07/11 02:39:44;;;;;;;9.48;3.67;;;;;;;;;;5086487;28;20060;-72
2022/07/11 02:42:09;;;;;;;9.48;4.10;;;;;;;;;;5084462;28;20028;-71
2022/07/11 02:44:35;;;;;;;9.15;3.67;;;;;;;;;;5086843;28;20450;-71
2022/07/11 02:47:00;;;;;;;7.78;4.18;;;;;;;;;;5071805;28;20029;-72
2022/07/11 02:49:25;;;;;;;8.45;3.78;;;;;;;;;;5074990;28;20021;-72
2022/07/11 02:51:50;;;;;;;11.38;4.57;;;;;;;;;;5074982;28;20024;-73
2022/07/11 02:54:16;;;;;;;10.85;3.97;;;;;;;;;;5088516;28;20066;-73
2022/07/11 02:56:42;;;;;;;9.25;4.57;;;;;;;;;;5075096;28;20113;-73
2022/07/11 02:59:07;;;;;;;7.93;4.28;;;;;;;;;;5083487;28;20047;-72
2022/07/11 03:01:34;;;;;;;10.23;4.45;;;;;;;;;;5075633;28;20096;-72
2022/07/11 03:03:59;;;;;;;9.57;4.13;;;;;;;;;;5077245;28;20024;-72
2022/07/11 03:06:25;;;;;;;10.57;4.13;;;;;;;;;;5075516;28;20423;-72
2022/07/11 03:08:50;;;;;;;14.48;4.53;;;;;;;;;;5083980;28;20025;-72
2022/07/11 03:11:15;;;;;;;10.13;4.50;;;;;;;;;;5081036;28;20107;-72
2022/07/11 03:13:40;;;;;;;10.30;4.55;;;;;;;;;;5081793;28;20067;-73
2022/07/11 03:16:06;;;;;;;9.20;4.57;;;;;;;;;;5075618;28;20047;-72
2022/07/11 03:18:31;;;;;;;8.40;4.10;;;;;;;;;;5085843;28;20416;-72
2022/07/11 03:20:56;;;;;;;8.05;4.18;;;;;;;;;;5085731;28;20066;-72
2022/07/11 03:23:22;;;;;;;9.88;4.30;;;;;;;;;;5082259;28;20028;-72
2022/07/11 03:25:47;;;;;;;9.50;4.15;;;;;;;;;;5080090;28;20044;-72
2022/07/11 03:28:12;;;;;;;11.63;4.15;;;;;;;;;;5062047;28;20152;-72
2022/07/11 03:30:37;;;;;;;10.15;4.53;;;;;;;;;;5077644;28;20024;-72
2022/07/11 03:33:03;;;;;;;9.07;3.85;;;;;;;;;;5084242;28;20032;-72
2022/07/11 03:35:43;;;;;;;9.43;4.07;;;;;;;;;;5083180;28;20353;-73
2022/07/11 03:38:09;;;;;;;12.38;4.35;;;;;;;;;;5078805;28;20024;-72
2022/07/11 03:40:34;;;;;;;9.95;4.53;;;;;;;;;;5083834;28;20115;-72
2022/07/11 03:43:00;;;;;;;9.45;4.07;;;;;;;;;;5079760;28;20016;-71
2022/07/11 03:45:25;;;;;;;13.05;4.28;;;;;;;;;;5077542;28;20040;-72
2022/07/11 03:47:50;;;;;;;9.32;4.07;;;;;;;;;;5074923;28;20479;-73
2022/07/11 03:50:16;;;;;;;9.65;4.50;;;;;;;;;;5078883;28;20024;-72
2022/07/11 03:52:42;;;;;;;9.63;4.30;;;;;;;;;;5075167;28;20019;-72
2022/07/11 03:55:07;;;;;;;8.88;3.95;;;;;;;;;;5079257;28;20046;-73
2022/07/11 03:57:33;;;;;;;9.93;4.00;;;;;;;;;;5074933;28;20024;-72
2022/07/11 03:59:59;;;;;;;9.65;4.00;;;;;;;;;;5078439;28;20103;-72
2022/07/11 04:02:24;;;;;;;9.43;4.13;;;;;;;;;;5081212;28;20454;-73
2022/07/11 04:04:49;;;;;;;8.95;4.10;;;;;;;;;;5081630;28;20095;-72
2022/07/11 04:07:14;;;;;;;10.98;4.30;;;;;;;;;;5074658;28;20039;-72
2022/07/11 04:09:40;;;;;;;11.20;4.70;;;;;;;;;;5078793;28;20028;-72
2022/07/11 04:12:05;;;;;;;12.07;4.30;;;;;;;;;;5091449;28;20026;-72
2022/07/11 04:14:30;;;;;;;12.35;4.70;;;;;;;;;;5075536;28;20155;-72
2022/07/11 04:16:55;;;;;;;13.32;4.20;;;;;;;;;;5073686;28;20035;-72
2022/07/11 04:19:21;;;;;;;10.07;4.57;;;;;;;;;;5087761;28;20063;-72
2022/07/11 04:21:47;;;;;;;8.35;3.95;;;;;;;;;;5076276;28;20098;-72
2022/07/11 04:24:12;;;;;;;7.95;3.95;;;;;;;;;;5083470;28;20024;-73
2022/07/11 04:26:37;;;;;;;7.43;4.00;;;;;;;;;;5077905;28;20033;-72
2022/07/11 04:29:02;;;;;;;8.90;4.03;;;;;;;;;;5085634;28;20024;-72
2022/07/11 04:31:27;;;;;;;7.43;3.92;;;;;;;;;;5074557;28;20036;-71
2022/07/11 04:33:53;;;;;;;7.60;3.75;;;;;;;;;;5080253;28;20052;-71
2022/07/11 04:36:18;;;;;;;9.50;3.80;;;;;;;;;;5077063;28;20360;-71
2022/07/11 04:38:44;;;;;;;8.48;4.00;;;;;;;;;;5086320;28;20055;-73
2022/07/11 04:41:09;;;;;;;11.88;3.83;;;;;;;;;;5082876;28;20047;-72
2022/07/11 04:43:36;;;;;;;8.40;3.45;;;;;;;;;;5092804;28;20020;-72
2022/07/11 04:46:04;;;;;;;7.88;3.45;;;;;;;;;;5072983;28;20066;-72
2022/07/11 04:48:30;;;;;;;9.23;3.90;;;;;;;;;;5084057;28;20074;-72
2022/07/11 04:50:55;;;;;;;8.73;3.65;;;;;;;;;;5079037;28;20016;-72
2022/07/11 04:53:21;;;;;;;7.65;3.83;;;;;;;;;;5084219;28;20388;-72
2022/07/11 04:55:46;;;;;;;5.35;3.22;;;;;;;;;;5075160;28;20044;-72
2022/07/11 04:58:11;;;;;;;3.67;2.25;;;;;;;;;;5074112;28;20037;-71
2022/07/11 05:00:36;;;;;;;3.90;2.13;;;;;;;;;;5078645;28;20032;-72
2022/07/11 05:03:02;;;;;;;5.45;2.10;;;;;;;;;;5084167;28;20028;-71
2022/07/11 05:05:27;;;;;;;2.70;1.80;;;;;;;;;;5083248;28;20036;-73
2022/07/11 05:07:53;;;;;;;2.75;1.77;;;;;;;;;;5080910;28;20086;-73
2022/07/11 05:10:18;;;;;;;2.47;1.60;;;;;;;;;;5088535;28;20430;-72
2022/07/11 05:12:44;;;;;;;4.40;1.90;;;;;;;;;;5072981;28;20029;-72
2022/07/11 05:15:09;;;;;;;3.35;1.75;;;;;;;;;;5079126;28;20985;-72
2022/07/11 05:17:35;;;;;;;2.50;1.52;;;;;;;;;;5072658;28;20029;-72
2022/07/11 05:20:00;;;;;;;2.97;1.63;;;;;;;;;;5075183;28;20024;-72
2022/07/11 05:22:25;;;;;;;4.57;1.70;;;;;;;;;;5083586;28;20077;-72
2022/07/11 05:24:51;;;;;;;3.90;1.42;;;;;;;;;;5081787;28;20030;-73
2022/07/11 05:27:16;;;;;;;5.18;3.00;;;;;;;;;;5077555;28;20452;-73
2022/07/11 05:29:41;;;;;;;2.65;1.55;;;;;;;;;;5082200;28;20058;-72
2022/07/11 05:32:07;;;;;;;2.55;1.45;;;;;;;;;;5072668;28;20025;-72
2022/07/11 05:34:32;;;;;;;3.15;1.50;;;;;;;;;;5089336;28;20461;-73
2022/07/11 05:36:57;;;;;;;4.47;1.40;;;;;;;;;;5073699;28;20039;-72
2022/07/11 05:39:23;;;;;;;3.05;1.40;;;;;;;;;;5086989;28;20040;-72
2022/07/11 05:41:51;;;;;;;3.42;1.55;;;;;;;;;;5073879;28;20027;-73
2022/07/11 05:44:17;;;;;;;2.72;1.40;;;;;;;;;;5068787;28;20082;-73
2022/07/11 05:46:43;;;;;;;2.60;1.60;;;;;;;;;;5071938;28;20033;-73
2022/07/11 05:49:08;;;;;;;3.50;1.48;;;;;;;;;;5076848;28;20013;-73
2022/07/11 05:51:33;;;;;;;3.60;1.30;;;;;;;;;;5075746;28;20059;-72
2022/07/11 05:53:59;;;;;;;3.72;1.60;;;;;;;;;;5081891;28;20056;-73
2022/07/11 05:56:25;;;;;;;3.53;1.95;;;;;;;;;;5076716;28;20063;-72
2022/07/11 05:58:51;;;;;;;2.22;1.30;;;;;;;;;;5081427;28;20381;-74
2022/07/11 06:01:17;;;;;;;2.78;1.60;;;;;;;;;;5074609;28;20012;-72
2022/07/11 06:03:42;;;;;;;2.90;1.30;;;;;;;;;;5084561;28;20112;-72
2022/07/11 06:06:07;;;;;;;3.65;2.55;;;;;;;;;;5071618;28;20115;-70
2022/07/11 06:08:42;;;;;;;2.65;1.25;;;;;;;;;;5082953;28;20027;-70
2022/07/11 06:11:10;;;;;;;4.95;1.48;;;;;;;;;;5078350;28;20060;-70
2022/07/11 06:13:37;;;;;;;2.72;1.50;;;;;;;;;;5081545;28;20029;-71
2022/07/11 06:16:02;;;;;;;3.47;1.60;;;;;;;;;;5072787;28;20104;-72
2022/07/11 06:18:27;;;;;;;4.30;1.63;;;;;;;;;;5070582;28;20778;-73
2022/07/11 06:20:53;;;;;;;2.78;1.50;;;;;;;;;;5082760;28;20036;-73
2022/07/11 06:23:18;;;;;;;2.28;1.42;;;;;;;;;;5075545;28;20344;-74
2022/07/11 06:25:43;;;;;;;2.67;1.42;;;;;;;;;;5083503;28;20110;-74
2022/07/11 06:28:08;;;;;;;3.10;1.38;;;;;;;;;;5091748;28;20082;-74
2022/07/11 06:30:36;;;;;;;2.77;1.60;;;;;;;;;;5080714;28;20025;-74
2022/07/11 06:33:01;;;;;;;2.45;1.50;;;;;;;;;;5087771;28;20249;-72
2022/07/11 06:35:27;;;;;;;3.65;1.40;;;;;;;;;;5095926;28;20059;-72
2022/07/11 06:37:52;;;;;;;2.65;1.40;;;;;;;;;;5091259;28;20082;-72
2022/07/11 06:40:17;;;;;;;2.63;1.57;;;;;;;;;;5089368;28;20372;-72
2022/07/11 06:42:43;;;;;;;3.30;1.40;;;;;;;;;;5088298;28;20253;-72
2022/07/11 06:45:08;;;;;;;3.85;1.85;;;;;;;;;;5090437;28;20046;-72
2022/07/11 06:47:33;;;;;;;2.67;1.45;;;;;;;;;;5082470;28;20066;-72
2022/07/11 06:49:59;;;;;;;3.45;1.80;;;;;;;;;;5083532;28;20028;-73
2022/07/11 06:52:24;;;;;;;3.53;1.55;;;;;;;;;;5076004;28;20021;-73
2022/07/11 06:54:49;;;;;;;3.55;1.60;;;;;;;;;;5077306;28;20024;-73
2022/07/11 06:57:15;;;;;;;3.08;1.50;;;;;;;;;;5090031;28;20063;-72
2022/07/11 06:59:40;;;;;;;2.50;1.17;;;;;;;;;;5090236;28;20028;-73
2022/07/11 07:02:05;;;;;;;2.10;1.33;;;;;;;;;;5077543;28;20036;-73
2022/07/11 07:04:31;;;;;;;4.80;1.85;;;;;;;;;;5080030;28;20272;-73
2022/07/11 07:06:56;;;;;;;2.50;1.60;;;;;;;;;;5078514;28;20056;-72
2022/07/11 07:09:21;;;;;;;3.00;1.50;;;;;;;;;;5081004;28;20050;-73
2022/07/11 07:11:47;;;;;;;3.20;1.60;;;;;;;;;;5083063;28;20054;-73
2022/07/11 07:14:12;;;;;;;3.70;1.42;;;;;;;;;;5088736;28;20288;-73
2022/07/11 07:16:39;;;;;;;5.97;1.42;;;;;;;;;;5086781;28;20029;-73
2022/07/11 07:19:04;;;;;;;3.42;1.73;;;;;;;;;;5076236;28;20064;-73
2022/07/11 07:21:30;;;;;;;2.50;1.60;;;;;;;;;;5088182;28;20056;-72
2022/07/11 07:23:55;;;;;;;4.77;1.70;;;;;;;;;;5074218;28;20372;-72
2022/07/11 07:26:21;;;;;;;4.72;2.00;;;;;;;;;;5083865;28;20353;-72
2022/07/11 07:28:46;;;;;;;2.42;1.70;;;;;;;;;;5088101;28;20165;-72
2022/07/11 07:31:11;;;;;;;3.67;1.67;;;;;;;;;;5080025;28;20020;-72
2022/07/11 07:33:37;;;;;;;4.55;1.98;;;;;;;;;;5079992;28;20028;-74
2022/07/11 07:36:02;;;;;;;2.55;1.70;;;;;;;;;;5078451;28;20418;-73
2022/07/11 07:38:27;;;;;;;3.58;1.73;;;;;;;;;;5088071;28;20063;-74
2022/07/11 07:40:53;;;;;;;3.77;2.00;;;;;;;;;;5091042;28;20448;-73
2022/07/11 07:43:18;;;;;;;4.03;1.80;;;;;;;;;;5083637;28;20242;-73
2022/07/11 07:45:43;;;;;;;2.97;2.00;;;;;;;;;;5081406;28;20248;-74
2022/07/11 07:48:08;;;;;;;5.78;1.90;;;;;;;;;;5073967;28;20316;-73
2022/07/11 07:50:34;;;;;;;5.17;2.27;;;;;;;;;;5078930;28;20078;-73
2022/07/11 07:52:59;;;;;;;3.10;1.65;;;;;;;;;;5075557;28;20020;-74
2022/07/11 07:55:25;;;;;;;5.00;1.80;;;;;;;;;;5065970;28;20464;-72
2022/07/11 07:57:50;;;;;;;5.10;2.10;;;;;;;;;;5078314;28;20035;-73
2022/07/11 08:03:07;;;;;;;5.97;2.10;;;;;;;;;;5078060;28;20331;-74
2022/07/11 08:05:32;;;;;;;3.95;1.98;;;;;;;;;;5057296;28;20127;-74
2022/07/11 08:07:58;;;;;;;4.65;1.98;;;;;;;;;;5071727;28;20111;-74
2022/07/11 08:10:23;;;;;;;5.90;2.10;;;;;;;;;;5069216;28;20013;-74
2022/07/11 08:12:48;;;;;;;5.43;1.80;;;;;;;;;;5074839;28;20022;-74
2022/07/11 08:15:13;;;;;;;3.50;1.88;;;;;;;;;;5072024;28;23053;-73
2022/07/11 08:17:40;;;;;;;2.93;1.90;;;;;;;;;;5075159;28;20042;-76
2022/07/11 08:20:06;;;;;;;2.80;1.88;;;;;;;;;;5068201;28;20265;-75
2022/07/11 08:22:31;;;;;;;5.65;2.10;;;;;;;;;;5076970;28;20054;-75
2022/07/11 08:24:56;;;;;;;4.87;2.30;;;;;;;;;;5082066;28;20469;-74
2022/07/11 08:27:21;;;;;;;4.97;2.03;;;;;;;;;;5083442;28;20566;-75
2022/07/11 08:29:47;;;;;;;4.65;2.30;;;;;;;;;;5076855;28;20271;-75
2022/07/11 08:32:12;;;;;;;4.40;1.90;;;;;;;;;;5079473;28;20028;-75
2022/07/11 08:34:38;;;;;;;6.30;2.20;;;;;;;;;;5074192;28;20324;-75
2022/07/11 08:37:03;;;;;;;3.45;2.20;;;;;;;;;;5075011;28;20083;-75
2022/07/11 08:39:28;;;;;;;5.10;2.28;;;;;;;;;;5070127;28;20487;-76
2022/07/11 08:41:54;;;;;;;4.63;2.40;;;;;;;;;;5080477;28;20028;-76
2022/07/11 08:44:19;;;;;;;4.65;2.35;;;;;;;;;;5081767;28;20273;-76
2022/07/11 08:46:45;;;;;;;5.95;2.30;;;;;;;;;;5077823;28;20043;-74
2022/07/11 08:49:13;;;;;;;3.92;2.42;;;;;;;;;;5074900;28;20852;-76
2022/07/11 08:51:39;;;;;;;5.88;2.47;;;;;;;;;;5088944;28;20036;-75
2022/07/11 08:54:04;;;;;;;4.45;2.00;;;;;;;;;;5067390;28;20025;-75
2022/07/11 08:56:30;;;;;;;2.90;1.90;;;;;;;;;;5075145;28;20066;-74
2022/07/11 08:58:57;;;;;;;5.95;2.20;;;;;;;;;;5077664;28;20074;-74
2022/07/11 09:01:34;;;;;;;8.18;2.53;;;;;;;;;;5085813;28;20019;-74
2022/07/11 09:04:00;;;;;;;3.13;2.10;;;;;;;;;;5084399;28;20024;-74
2022/07/11 09:06:25;;;;;;;5.85;2.22;;;;;;;;;;5086759;28;20047;-75
2022/07/11 09:08:51;;;;;;;7.85;2.22;;;;;;;;;;5086753;28;20869;-74
2022/07/11 09:11:16;;;;;;;9.75;2.53;;;;;;;;;;5077097;28;20032;-75
2022/07/11 09:13:42;;;;;;;6.95;2.35;;;;;;;;;;5075649;28;20034;-76
2022/07/11 09:16:08;;;;;;;7.30;2.13;;;;;;;;;;5061845;28;20135;-74
2022/07/11 09:18:40;;;;;;;5.82;2.28;;;;;;;;;;5073892;28;20065;-75
2022/07/11 09:26:43;;;;;;;5.05;2.13;;;;;;;;;;5065826;28;20159;-74
2022/07/11 09:29:10;;;;;;;2.97;1.70;;;;;;;;;;5069853;28;20047;-77
2022/07/11 09:31:36;;;;;;;6.22;2.10;;;;;;;;;;5087206;28;20040;-76
2022/07/11 09:34:03;;;;;;;9.70;2.22;;;;;;;;;;5073703;28;20016;-75
2022/07/11 09:36:35;;;;;;;5.72;2.05;;;;;;;;;;5066824;28;20033;-76
2022/07/11 09:39:02;;;;;;;5.40;1.90;;;;;;;;;;5079226;28;20048;-75
2022/07/11 09:41:30;;;;;;;5.65;1.88;;;;;;;;;;5077168;28;20020;-74
2022/07/11 09:44:05;;;;;;;4.07;1.73;;;;;;;;;;5072130;28;20852;-75
2022/07/11 09:46:31;;;;;;;2.95;1.63;;;;;;;;;;5074048;28;20476;-75
2022/07/11 09:48:56;;;;;;;5.10;1.70;;;;;;;;;;5070995;28;20024;-76
2022/07/11 09:51:21;;;;;;;3.93;1.43;;;;;;;;;;5070870;28;20732;-76
2022/07/11 09:53:56;;;;;;;2.47;1.40;;;;;;;;;;5070441;28;20314;-75
2022/07/11 09:56:35;;;;;;;4.60;1.60;;;;;;;;;;5070436;28;20033;-76
2022/07/11 09:59:01;;;;;;;5.15;1.70;;;;;;;;;;5068828;28;20027;-75
2022/07/11 10:01:28;;;;;;;5.72;1.40;;;;;;;;;;5071127;28;20035;-75
2022/07/11 10:03:53;;;;;;;2.42;1.50;;;;;;;;;;5055515;28;20032;-75
2022/07/11 10:06:18;;;;;;;3.50;1.60;;;;;;;;;;5070012;28;20421;-74
2022/07/11 10:08:43;;;;;;;2.88;1.60;;;;;;;;;;5080602;28;20269;-75
2022/07/11 10:11:11;;;;;;;3.03;1.45;;;;;;;;;;5073764;28;20045;-74
2022/07/11 10:13:36;;;;;;;4.82;1.63;;;;;;;;;;5079495;28;20024;-74
2022/07/11 10:16:03;;;;;;;2.25;1.38;;;;;;;;;;5061035;28;20029;-76
2022/07/11 10:19:01;;;;;;;2.40;1.60;;;;;;;;;;5067214;28;20503;-74
2022/07/11 10:21:40;;;;;;;4.95;1.30;;;;;;;;;;5044434;28;20503;-74
2022/07/11 10:24:23;;;;;;;5.50;1.35;;;;;;;;;;5072314;28;20399;-75
2022/07/11 10:27:02;;;;;;;2.72;1.52;;;;;;;;;;5066371;28;20040;-74
2022/07/11 10:29:36;;;;;;;3.08;1.73;;;;;;;;;;5064258;28;20988;-75
2022/07/11 10:32:08;;;;;;;2.13;1.30;;;;;;;;;;5074340;28;20037;-74
2022/07/11 10:34:34;;;;;;;2.55;1.58;;;;;;;;;;5073398;28;20021;-74
2022/07/11 10:37:06;;;;;;;2.00;1.38;;;;;;;;;;5074164;28;20023;-74
2022/07/11 10:39:32;;;;;;;4.60;1.58;;;;;;;;;;5084547;28;20048;-74
2022/07/11 10:41:58;;;;;;;3.65;1.55;;;;;;;;;;5084155;28;20066;-74
2022/07/11 10:44:25;;;;;;;2.38;1.45;;;;;;;;;;5081927;28;20016;-75
2022/07/11 10:46:51;;;;;;;3.25;1.70;;;;;;;;;;5077016;28;20040;-74
2022/07/11 10:49:21;;;;;;;6.53;1.50;;;;;;;;;;5075001;28;20036;-76
2022/07/11 10:51:47;;;;;;;4.90;1.50;;;;;;;;;;5065622;28;20024;-75
2022/07/11 10:54:21;;;;;;;2.60;1.30;;;;;;;;;;5068829;28;20032;-74
2022/07/11 10:56:57;;;;;;;2.28;1.30;;;;;;;;;;5069690;28;20027;-74
2022/07/11 10:59:22;;;;;;;3.55;1.35;;;;;;;;;;5078730;28;20028;-74
2022/07/11 11:02:07;;;;;;;3.88;1.30;;;;;;;;;;5083360;28;20585;-73
2022/07/11 11:04:45;;;;;;;2.22;1.20;;;;;;;;;;5080162;28;20471;-73
2022/07/11 11:07:29;;;;;;;3.28;1.23;;;;;;;;;;5065228;28;20033;-73
2022/07/11 11:09:55;;;;;;;2.40;1.20;;;;;;;;;;5059886;28;20028;-73
2022/07/11 11:12:20;;;;;;;2.83;1.20;;;;;;;;;;5081081;28;20035;-73
2022/07/11 11:14:46;;;;;;;3.08;1.40;;;;;;;;;;5079668;28;20052;-73
2022/07/11 11:17:29;;;;;;;3.28;1.27;;;;;;;;;;5082535;28;20129;-73
2022/07/11 11:19:55;;;;;;;4.18;1.23;;;;;;;;;;5074530;28;20035;-73
2022/07/11 11:22:21;;;;;;;2.13;1.20;;;;;;;;;;5073042;28;20028;-72
2022/07/11 11:24:52;;;;;;;4.72;1.45;;;;;;;;;;5071545;28;20029;-72
2022/07/11 11:27:19;;;;;;;5.60;1.45;;;;;;;;;;5072721;28;20032;-72
2022/07/11 11:29:44;;;;;;;3.90;1.60;;;;;;;;;;5085754;28;20024;-72
2022/07/11 11:32:09;;;;;;;4.97;1.30;;;;;;;;;;5087249;28;20036;-73
2022/07/11 11:34:35;;;;;;;3.40;1.42;;;;;;;;;;5083109;28;20436;-72
2022/07/11 11:37:01;;;;;;;5.35;1.85;;;;;;;;;;5088162;28;20039;-74
2022/07/11 11:39:38;;;;;;;6.05;1.60;;;;;;;;;;5087040;28;20051;-72
2022/07/11 11:42:05;;;;;;;6.13;1.60;;;;;;;;;;5091164;28;20534;-72
2022/07/11 11:44:31;;;;;;;3.70;1.60;;;;;;;;;;5075460;28;20342;-76
2022/07/11 11:46:57;;;;;;;4.30;1.48;;;;;;;;;;5076235;28;20123;-73
2022/07/11 11:49:22;;;;;;;4.57;1.83;;;;;;;;;;5084439;28;20119;-73
2022/07/11 11:51:47;;;;;;;4.75;1.77;;;;;;;;;;5077693;28;20058;-74
2022/07/11 11:54:20;;;;;;;6.57;1.83;;;;;;;;;;5081996;28;20028;-72
2022/07/11 11:56:45;;;;;;;3.38;1.50;;;;;;;;;;5078228;28;20377;-72
2022/07/11 11:59:15;;;;;;;5.68;1.70;;;;;;;;;;5084519;28;20054;-72
2022/07/11 12:01:42;;;;;;;7.55;1.50;;;;;;;;;;5075953;28;20017;-72
2022/07/11 12:04:09;;;;;;;4.28;1.60;;;;;;;;;;5088025;28;20038;-72
2022/07/11 12:06:36;;;;;;;3.28;1.55;;;;;;;;;;5079700;28;20119;-72
2022/07/11 12:09:03;;;;;;;5.80;1.70;;;;;;;;;;5076563;28;20449;-74
2022/07/11 12:11:29;;;;;;;5.50;1.58;;;;;;;;;;5077316;28;20387;-72
2022/07/11 12:13:58;;;;;;;4.85;1.45;;;;;;;;;;5071218;28;21378;-74
2022/07/11 12:16:39;;;;;;;5.70;1.90;;;;;;;;;;5072860;28;20035;-72
2022/07/11 12:19:07;;;;;;;4.10;1.40;;;;;;;;;;5073478;28;20032;-73
2022/07/11 12:21:33;;;;;;;3.55;1.65;;;;;;;;;;5089898;28;20039;-73
2022/07/11 12:24:00;;;;;;;3.38;1.63;;;;;;;;;;5078124;28;20021;-73
2022/07/11 12:26:26;;;;;;;3.85;1.50;;;;;;;;;;5063033;28;20376;-72
2022/07/11 12:29:05;;;;;;;7.63;1.55;;;;;;;;;;5074694;28;20407;-71
2022/07/11 12:31:46;;;;;;;4.07;1.73;;;;;;;;;;5069334;28;20108;-72
2022/07/11 12:34:12;;;;;;;6.60;1.55;;;;;;;;;;5085189;28;20028;-73
2022/07/11 12:36:37;;;;;;;4.57;1.65;;;;;;;;;;5078449;28;20376;-73
2022/07/11 12:39:04;;;;;;;5.90;1.50;;;;;;;;;;5064630;28;20052;-72
2022/07/11 12:41:30;;;;;;;4.68;1.55;;;;;;;;;;5061679;28;20106;-72
2022/07/11 12:46:40;;;;;;;4.45;1.50;;;;;;;;;;5061024;28;20455;-73
2022/07/11 12:49:07;;;;;;;5.18;1.42;;;;;;;;;;5056150;28;20056;-72
2022/07/11 12:51:40;;;;;;;4.40;1.27;;;;;;;;;;5059610;28;20036;-72
2022/07/11 12:54:08;;;;;;;4.13;1.50;;;;;;;;;;5060045;28;20029;-72
2022/07/11 12:56:33;;;;;;;4.22;1.67;;;;;;;;;;5064638;28;20036;-72
2022/07/11 12:58:59;;;;;;;4.32;1.60;;;;;;;;;;5055717;28;20349;-72
2022/07/11 13:01:24;;;;;;;3.03;1.50;;;;;;;;;;5055253;28;20111;-72
2022/07/11 13:03:49;;;;;;;2.78;1.35;;;;;;;;;;5050812;28;20078;-72
2022/07/11 13:06:15;;;;;;;6.07;1.58;;;;;;;;;;5050243;28;20384;-72
2022/07/11 13:08:47;;;;;;;2.88;1.48;;;;;;;;;;5063257;28;20033;-72
2022/07/11 13:11:16;;;;;;;3.72;1.48;;;;;;;;;;5052548;28;20052;-72
2022/07/11 13:13:42;;;;;;;4.20;1.55;;;;;;;;;;5055659;28;20050;-72
2022/07/11 13:16:09;;;;;;;4.63;1.50;;;;;;;;;;5053122;28;20109;-72
2022/07/11 13:18:34;;;;;;;5.70;1.25;;;;;;;;;;5053200;28;20024;-72
2022/07/11 13:21:00;;;;;;;3.17;1.35;;;;;;;;;;5062907;28;20032;-72
2022/07/11 13:23:26;;;;;;;3.13;1.48;;;;;;;;;;5058737;28;20066;-72
2022/07/11 13:25:51;;;;;;;4.07;1.33;;;;;;;;;;5056580;28;20017;-72
2022/07/11 13:28:16;;;;;;;4.80;1.30;;;;;;;;;;5055837;28;20033;-72
2022/07/11 13:30:42;;;;;;;5.80;1.17;;;;;;;;;;5059777;28;20479;-72
2022/07/11 13:33:07;;;;;;;6.53;1.33;;;;;;;;;;5067454;28;20020;-72
2022/07/11 13:35:32;;;;;;;2.80;1.50;;;;;;;;;;5058278;28;20033;-72
2022/07/11 13:37:57;;;;;;;4.20;1.42;;;;;;;;;;5058405;28;20036;-72
2022/07/11 13:40:24;;;;;;;4.78;1.17;;;;;;;;;;5077813;28;20152;-72
2022/07/11 13:42:50;;;;;;;4.55;1.50;;;;;;;;;;5070069;28;20099;-72
2022/07/11 13:45:16;;;;;;;6.38;1.25;;;;;;;;;;5085307;28;20124;-72
2022/07/11 13:47:42;;;;;;;4.00;1.63;;;;;;;;;;5080818;28;20389;-72
2022/07/11 13:50:07;;;;;;;6.15;1.77;;;;;;;;;;5079551;28;20101;-72
2022/07/11 13:52:32;;;;;;;4.38;1.25;;;;;;;;;;5084622;28;20028;-72
2022/07/11 13:54:58;;;;;;;10.75;1.40;;;;;;;;;;5076538;28;20028;-72
2022/07/11 13:57:24;;;;;;;2.90;1.40;;;;;;;;;;5080495;28;20433;-72
2022/07/11 13:59:49;;;;;;;5.90;1.60;;;;;;;;;;5072773;28;20062;-73
2022/07/11 14:02:15;;;;;;;8.88;1.60;;;;;;;;;;5067383;28;20118;-73
2022/07/11 14:04:41;;;;;;;3.65;1.27;;;;;;;;;;5075059;28;20056;-72
2022/07/11 14:07:07;;;;;;;5.28;1.55;;;;;;;;;;5078336;28;20540;-73
2022/07/11 14:09:33;;;;;;;4.00;1.50;;;;;;;;;;5068694;28;20046;-73
2022/07/11 14:11:58;;;;;;;3.55;1.50;;;;;;;;;;5086624;28;20028;-73
2022/07/11 14:14:24;;;;;;;5.65;1.40;;;;;;;;;;5087967;28;20036;-73
2022/07/11 14:16:49;;;;;;;3.28;1.70;;;;;;;;;;5073989;28;20090;-73
2022/07/11 14:19:14;;;;;;;2.95;1.40;;;;;;;;;;5078052;28;20036;-73
2022/07/11 14:21:40;;;;;;;3.85;1.55;;;;;;;;;;5078786;28;20044;-73
2022/07/11 14:24:06;;;;;;;7.25;1.45;;;;;;;;;;5077848;28;20012;-73
2022/07/11 14:26:32;;;;;;;3.33;1.45;;;;;;;;;;5075104;28;20028;-73
2022/07/11 14:28:58;;;;;;;3.42;1.45;;;;;;;;;;5076543;28;20491;-72
2022/07/11 14:31:23;;;;;;;6.25;1.70;;;;;;;;;;5076812;28;20020;-73
2022/07/11 14:33:53;;;;;;;3.42;1.45;;;;;;;;;;5072306;28;20016;-73
2022/07/11 14:36:18;;;;;;;4.43;1.30;;;;;;;;;;5083233;28;20062;-73
2022/07/11 14:38:45;;;;;;;2.65;1.15;;;;;;;;;;5084762;28;20044;-73
2022/07/11 14:41:10;;;;;;;5.78;1.50;;;;;;;;;;5084026;28;20476;-73
2022/07/11 14:43:35;;;;;;;5.60;1.33;;;;;;;;;;5082327;28;20032;-73
2022/07/11 14:46:01;;;;;;;4.57;1.20;;;;;;;;;;5082697;28;20008;-73
2022/07/11 14:48:27;;;;;;;4.25;1.45;;;;;;;;;;5078260;28;20353;-73
2022/07/11 14:50:53;;;;;;;3.42;1.58;;;;;;;;;;5083512;28;20044;-73
2022/07/11 14:53:18;;;;;;;5.13;1.40;;;;;;;;;;5079456;28;20121;-73